Time;durP1;ratioP1;P1;durP2;ratioP2;P2;SDS_P1;SDS_P2;PMS_P1;PMS_P2;Temp;Humidity;BMP_temperature;BMP_pressure;BME280_temperature;BME280_humidity;BME280_pressure;Samples;Min_cycle;Max_cycle;Signal;HPM_P1;HPM_P2
2023/12/28 00:00:59;;;;;;;14.73;7.72;;;5.50;99.90;;;;;;2073076;28;20021;-71
2023/12/28 00:01:59;;;;;;;13.98;7.85;;;5.60;99.90;;;;;;2072746;28;20079;-73
2023/12/28 00:03:00;;;;;;;15.38;7.97;;;5.60;99.90;;;;;;2072293;28;20124;-73
2023/12/28 00:04:01;;;;;;;16.13;8.57;;;5.60;99.90;;;;;;2076363;28;20025;-72
2023/12/28 00:05:01;;;;;;;15.07;7.57;;;5.60;99.90;;;;;;2075146;28;20033;-72
2023/12/28 00:06:02;;;;;;;13.57;7.32;;;5.60;99.90;;;;;;2072228;28;20025;-73
2023/12/28 00:07:03;;;;;;;15.55;8.15;;;5.60;99.90;;;;;;2075319;28;20028;-72
2023/12/28 00:08:04;;;;;;;13.35;7.35;;;5.60;99.90;;;;;;2074140;28;20025;-73
2023/12/28 00:09:05;;;;;;;16.02;7.85;;;5.60;99.90;;;;;;2065908;28;20092;-70
2023/12/28 00:10:06;;;;;;;14.98;7.88;;;5.60;99.90;;;;;;2074295;28;20395;-72
2023/12/28 00:11:06;;;;;;;12.88;7.55;;;5.60;99.90;;;;;;2076621;28;20036;-72
2023/12/28 00:12:07;;;;;;;13.90;7.38;;;5.60;99.90;;;;;;2077140;28;20535;-72
2023/12/28 00:13:07;;;;;;;14.25;7.07;;;5.60;99.90;;;;;;2075378;28;20030;-72
2023/12/28 00:14:08;;;;;;;13.23;7.07;;;5.60;99.90;;;;;;2072288;28;20026;-72
2023/12/28 00:15:09;;;;;;;15.68;8.15;;;5.70;99.90;;;;;;2079789;28;20492;-72
2023/12/28 00:16:09;;;;;;;14.90;7.78;;;5.70;99.90;;;;;;2076604;28;20029;-72
2023/12/28 00:17:10;;;;;;;16.10;7.88;;;5.70;99.90;;;;;;2076208;28;20421;-73
2023/12/28 00:18:10;;;;;;;19.27;7.63;;;5.80;99.90;;;;;;2079595;28;20083;-73
2023/12/28 00:19:11;;;;;;;14.18;7.55;;;5.80;99.90;;;;;;2076181;28;20515;-72
2023/12/28 00:20:12;;;;;;;13.38;7.57;;;5.80;99.90;;;;;;2080475;28;20044;-73
2023/12/28 00:21:12;;;;;;;17.38;7.97;;;5.70;99.90;;;;;;2075696;28;20496;-72
2023/12/28 00:22:13;;;;;;;14.68;7.47;;;5.70;99.90;;;;;;2068671;28;20065;-72
2023/12/28 00:23:13;;;;;;;14.85;7.65;;;5.70;99.90;;;;;;2071006;28;20025;-72
2023/12/28 00:24:15;;;;;;;12.25;7.43;;;5.70;99.90;;;;;;2075839;28;20037;-74
2023/12/28 00:25:16;;;;;;;13.00;7.18;;;5.70;99.90;;;;;;2080128;28;20063;-72
2023/12/28 00:26:21;;;;;;;11.73;6.82;;;5.80;99.90;;;;;;2075773;28;20026;-72
2023/12/28 00:27:22;;;;;;;14.35;7.25;;;5.80;99.90;;;;;;2075498;28;20037;-73
2023/12/28 00:28:23;;;;;;;13.70;7.50;;;5.80;99.90;;;;;;2079465;28;20089;-74
2023/12/28 00:29:23;;;;;;;14.70;6.93;;;5.80;99.90;;;;;;2078272;28;21171;-72
2023/12/28 00:30:24;;;;;;;14.70;7.28;;;5.80;99.90;;;;;;2067550;28;20041;-73
2023/12/28 00:31:24;;;;;;;13.75;7.50;;;5.80;99.90;;;;;;2056710;28;20030;-72
2023/12/28 00:32:25;;;;;;;14.35;7.72;;;5.90;99.90;;;;;;2077363;28;20029;-72
2023/12/28 00:33:25;;;;;;;12.38;7.60;;;5.80;99.90;;;;;;2077787;28;20029;-73
2023/12/28 00:34:26;;;;;;;14.43;8.07;;;5.80;99.90;;;;;;2083418;28;20029;-73
2023/12/28 00:35:27;;;;;;;11.00;7.20;;;5.80;99.90;;;;;;2079103;28;20161;-74
2023/12/28 00:36:27;;;;;;;12.75;7.32;;;5.80;99.90;;;;;;2079191;28;20508;-73
2023/12/28 00:37:28;;;;;;;13.10;7.38;;;5.80;99.90;;;;;;2074220;28;20040;-73
2023/12/28 00:38:28;;;;;;;14.05;7.50;;;5.80;99.90;;;;;;2068170;28;20025;-74
2023/12/28 00:39:29;;;;;;;12.35;7.78;;;5.80;99.90;;;;;;2066962;28;20041;-73
2023/12/28 00:40:30;;;;;;;16.73;7.60;;;5.80;99.90;;;;;;2076167;28;20100;-73
2023/12/28 00:41:30;;;;;;;14.52;7.75;;;5.80;99.90;;;;;;2083168;28;20016;-73
2023/12/28 00:42:31;;;;;;;12.82;7.28;;;5.90;99.90;;;;;;2084252;28;20419;-73
2023/12/28 00:43:31;;;;;;;14.02;7.53;;;5.90;99.90;;;;;;2076207;28;20369;-74
2023/12/28 00:44:33;;;;;;;15.45;8.52;;;5.90;99.90;;;;;;2079201;28;20025;-73
2023/12/28 00:45:34;;;;;;;13.70;7.00;;;5.90;99.90;;;;;;2075530;28;20021;-72
2023/12/28 00:46:35;;;;;;;13.30;7.18;;;5.90;99.90;;;;;;2076895;28;20026;-74
2023/12/28 00:47:36;;;;;;;12.18;7.20;;;5.90;99.90;;;;;;2071363;28;20029;-72
2023/12/28 00:48:36;;;;;;;12.85;6.80;;;6.00;99.90;;;;;;2065460;28;20018;-74
2023/12/28 00:49:37;;;;;;;11.40;6.90;;;5.90;99.90;;;;;;2067711;28;20436;-73
2023/12/28 00:50:37;;;;;;;13.30;7.13;;;5.90;99.90;;;;;;2060012;28;20081;-71
2023/12/28 00:51:38;;;;;;;12.30;6.68;;;5.90;99.90;;;;;;2062616;28;20026;-74
2023/12/28 00:52:38;;;;;;;13.35;7.18;;;5.90;99.90;;;;;;2067928;28;20042;-74
2023/12/28 00:53:39;;;;;;;17.83;7.22;;;5.90;99.90;;;;;;2063053;28;20629;-73
2023/12/28 00:54:39;;;;;;;12.95;6.88;;;5.90;99.90;;;;;;2071007;28;20025;-73
2023/12/28 00:55:40;;;;;;;12.40;7.13;;;5.90;99.90;;;;;;2072199;28;20234;-73
2023/12/28 00:56:40;;;;;;;13.55;6.72;;;5.80;99.90;;;;;;2078746;28;20022;-73
2023/12/28 00:57:41;;;;;;;11.90;7.43;;;5.90;99.90;;;;;;2071259;28;20103;-73
2023/12/28 00:58:43;;;;;;;15.38;7.68;;;5.80;99.90;;;;;;2076560;28;20053;-72
2023/12/28 00:59:44;;;;;;;16.45;7.35;;;5.80;99.90;;;;;;2076049;28;20439;-72
2023/12/28 01:00:44;;;;;;;13.27;8.20;;;5.70;99.90;;;;;;2066777;28;20109;-72
2023/12/28 01:01:45;;;;;;;13.38;8.00;;;5.70;99.90;;;;;;2076333;28;20033;-72
2023/12/28 01:02:46;;;;;;;14.38;7.88;;;5.60;99.90;;;;;;2084280;28;20060;-72
2023/12/28 01:03:47;;;;;;;16.08;8.18;;;5.60;99.90;;;;;;2081634;28;20513;-72
2023/12/28 01:04:48;;;;;;;16.10;8.52;;;5.50;99.90;;;;;;2069902;28;20036;-72
2023/12/28 01:05:52;;;;;;;18.52;8.43;;;5.50;99.90;;;;;;2066907;28;20303;-71
2023/12/28 01:06:52;;;;;;;13.88;7.15;;;5.50;99.90;;;;;;2074917;28;20040;-71
2023/12/28 01:07:53;;;;;;;13.18;6.97;;;5.50;99.90;;;;;;2074917;28;20045;-72
2023/12/28 01:08:54;;;;;;;12.95;7.07;;;5.40;99.90;;;;;;2077392;28;20032;-71
2023/12/28 01:09:54;;;;;;;14.00;7.15;;;5.40;99.90;;;;;;2077192;28;20017;-72
2023/12/28 01:10:55;;;;;;;15.27;7.30;;;5.40;99.90;;;;;;2070657;28;21148;-71
2023/12/28 01:11:55;;;;;;;12.15;7.15;;;5.40;99.90;;;;;;2058868;28;21298;-72
2023/12/28 01:12:56;;;;;;;12.25;6.78;;;5.50;99.90;;;;;;2068061;28;20141;-71
2023/12/28 01:13:57;;;;;;;12.68;7.13;;;5.50;99.90;;;;;;2079200;28;20021;-71
2023/12/28 01:14:58;;;;;;;12.45;6.75;;;5.50;99.90;;;;;;2072317;28;20460;-72
2023/12/28 01:15:58;;;;;;;12.77;7.10;;;5.50;99.90;;;;;;2075087;28;20080;-71
2023/12/28 01:16:59;;;;;;;13.32;6.85;;;5.50;99.90;;;;;;2075138;28;20035;-72
2023/12/28 01:18:00;;;;;;;12.13;6.90;;;5.60;99.90;;;;;;2067022;28;20050;-72
2023/12/28 01:19:00;;;;;;;12.75;7.28;;;5.50;99.90;;;;;;2075218;28;20455;-72
2023/12/28 01:20:01;;;;;;;14.27;6.78;;;5.50;99.90;;;;;;2078235;28;20028;-72
2023/12/28 01:21:01;;;;;;;11.57;6.88;;;5.50;99.90;;;;;;2079000;28;20037;-72
2023/12/28 01:22:02;;;;;;;10.45;6.60;;;5.40;99.90;;;;;;2075919;28;20027;-71
2023/12/28 01:23:03;;;;;;;11.70;6.55;;;5.40;99.90;;;;;;2070438;28;20323;-72
2023/12/28 01:24:03;;;;;;;13.07;6.68;;;5.50;99.90;;;;;;2064513;28;20038;-71
2023/12/28 01:25:05;;;;;;;12.05;6.45;;;5.50;99.90;;;;;;2078985;28;20100;-72
2023/12/28 01:26:06;;;;;;;10.40;6.32;;;5.50;99.90;;;;;;2078647;28;20119;-72
2023/12/28 01:27:06;;;;;;;10.40;6.28;;;5.60;99.90;;;;;;2076175;28;20075;-72
2023/12/28 01:28:07;;;;;;;11.93;6.50;;;5.60;99.90;;;;;;2070881;28;20136;-72
2023/12/28 01:29:08;;;;;;;11.23;6.60;;;5.60;99.90;;;;;;2077148;28;20021;-72
2023/12/28 01:30:09;;;;;;;10.57;6.28;;;5.60;99.90;;;;;;2066856;28;20508;-73
2023/12/28 01:31:09;;;;;;;10.38;6.57;;;5.60;99.90;;;;;;2065792;28;20022;-72
2023/12/28 01:32:10;;;;;;;11.98;6.53;;;5.60;99.90;;;;;;2087825;28;20028;-72
2023/12/28 01:33:12;;;;;;;9.70;6.20;;;5.50;99.90;;;;;;2075491;28;20047;-72
2023/12/28 01:34:12;;;;;;;10.35;6.05;;;5.50;99.90;;;;;;2078246;28;20459;-72
2023/12/28 01:35:13;;;;;;;11.50;6.40;;;5.50;99.90;;;;;;2078842;28;20347;-71
2023/12/28 01:36:19;;;;;;;12.45;6.30;;;5.50;99.90;;;;;;2075904;28;20029;-71
2023/12/28 01:37:19;;;;;;;10.70;6.10;;;5.50;99.90;;;;;;2078127;28;20385;-71
2023/12/28 01:38:20;;;;;;;10.43;5.80;;;5.50;99.90;;;;;;2083204;28;20065;-71
2023/12/28 01:39:20;;;;;;;13.30;5.95;;;5.50;99.90;;;;;;2076384;28;20026;-71
2023/12/28 01:40:21;;;;;;;11.23;5.97;;;5.50;99.90;;;;;;2081127;28;20060;-71
2023/12/28 01:41:21;;;;;;;9.93;5.70;;;5.50;99.90;;;;;;2086904;28;20039;-72
2023/12/28 01:42:22;;;;;;;10.35;5.70;;;5.50;99.90;;;;;;2079445;28;20049;-72
2023/12/28 01:43:23;;;;;;;12.73;6.00;;;5.50;99.90;;;;;;2076903;28;20041;-71
2023/12/28 01:44:23;;;;;;;10.02;6.10;;;5.50;99.90;;;;;;2077017;28;20068;-71
2023/12/28 01:45:24;;;;;;;11.70;6.28;;;5.50;99.90;;;;;;2086783;28;20491;-71
2023/12/28 01:46:24;;;;;;;12.00;5.93;;;5.50;99.90;;;;;;2077737;28;20582;-71
2023/12/28 01:47:26;;;;;;;9.95;6.05;;;5.60;99.90;;;;;;2075539;28;20033;-71
2023/12/28 01:48:27;;;;;;;9.48;5.57;;;5.60;99.90;;;;;;2079158;28;20041;-72
2023/12/28 01:49:28;;;;;;;10.23;5.85;;;5.70;99.90;;;;;;2085342;28;20025;-71
2023/12/28 01:50:31;;;;;;;10.55;5.85;;;5.80;99.90;;;;;;2067617;28;20061;-72
2023/12/28 01:51:32;;;;;;;11.05;5.78;;;5.80;99.90;;;;;;2066133;28;20026;-72
2023/12/28 01:52:34;;;;;;;9.45;5.70;;;5.80;99.90;;;;;;2074829;28;20479;-72
2023/12/28 01:53:34;;;;;;;10.20;5.55;;;5.80;99.90;;;;;;2074793;28;20025;-72
2023/12/28 01:54:36;;;;;;;9.35;6.00;;;5.80;99.90;;;;;;2067442;28;20035;-72
2023/12/28 01:55:38;;;;;;;9.85;6.05;;;5.80;99.90;;;;;;2078272;28;20103;-72
2023/12/28 01:56:39;;;;;;;9.85;5.50;;;5.80;99.90;;;;;;2070656;28;20026;-72
2023/12/28 01:57:40;;;;;;;9.80;6.00;;;5.80;99.90;;;;;;2070758;28;20063;-72
2023/12/28 01:58:42;;;;;;;9.40;6.00;;;5.80;99.90;;;;;;2078400;28;20021;-72
2023/12/28 01:59:44;;;;;;;10.40;5.90;;;5.80;99.90;;;;;;2067201;28;20026;-72
2023/12/28 02:00:45;;;;;;;9.75;5.60;;;5.80;99.90;;;;;;2069726;28;20017;-72
2023/12/28 02:01:46;;;;;;;10.15;5.80;;;5.90;99.90;;;;;;2077251;28;20533;-71
2023/12/28 02:02:48;;;;;;;10.23;5.60;;;5.80;99.90;;;;;;2072437;28;20021;-72
2023/12/28 02:03:48;;;;;;;9.23;5.50;;;5.80;99.90;;;;;;2078689;28;20068;-72
2023/12/28 02:04:49;;;;;;;9.25;5.40;;;5.80;99.90;;;;;;2077284;28;20450;-72
2023/12/28 02:05:51;;;;;;;8.98;5.60;;;5.90;99.90;;;;;;2074308;28;20053;-71
2023/12/28 02:06:56;;;;;;;9.55;5.43;;;5.90;99.90;;;;;;2075817;28;20021;-72
2023/12/28 02:07:57;;;;;;;9.23;5.30;;;5.80;99.90;;;;;;2084458;28;20036;-72
2023/12/28 02:08:58;;;;;;;8.93;5.25;;;5.80;99.90;;;;;;2078612;28;20471;-72
2023/12/28 02:09:59;;;;;;;9.35;5.30;;;5.80;99.90;;;;;;2077249;28;20072;-71
2023/12/28 02:11:00;;;;;;;7.72;5.10;;;5.90;99.90;;;;;;2075857;28;20039;-72
2023/12/28 02:12:00;;;;;;;8.40;4.88;;;5.90;99.90;;;;;;2075018;28;20147;-72
2023/12/28 02:13:01;;;;;;;8.40;5.20;;;5.90;99.90;;;;;;2086321;28;20038;-72
2023/12/28 02:14:02;;;;;;;9.30;4.97;;;5.90;99.90;;;;;;2077441;28;20378;-72
2023/12/28 02:15:03;;;;;;;7.35;4.72;;;5.90;99.90;;;;;;2067154;28;20033;-72
2023/12/28 02:16:11;;;;;;;8.23;4.80;;;5.90;99.90;;;;;;2078498;28;20268;-73
2023/12/28 02:17:32;;;;;;;9.05;4.90;;;5.90;99.90;;;;;;2078630;28;20100;-72
2023/12/28 02:18:43;;;;;;;10.05;5.10;;;5.90;99.90;;;;;;2077886;28;20024;-72
2023/12/28 02:19:53;;;;;;;10.02;5.32;;;5.90;99.90;;;;;;2071634;28;20063;-73
2023/12/28 02:20:56;;;;;;;9.07;4.90;;;6.00;99.90;;;;;;2069639;28;20030;-72
2023/12/28 02:21:58;;;;;;;7.47;4.65;;;6.00;99.90;;;;;;2075665;28;20488;-72
2023/12/28 02:22:59;;;;;;;9.00;4.95;;;6.00;99.90;;;;;;2070194;28;20136;-72
2023/12/28 02:24:00;;;;;;;8.00;5.00;;;6.00;99.90;;;;;;2069046;28;20037;-72
2023/12/28 02:25:03;;;;;;;9.82;5.00;;;6.00;99.90;;;;;;2075753;28;20029;-72
2023/12/28 02:26:04;;;;;;;8.63;5.15;;;6.00;99.90;;;;;;2074346;28;20175;-72
2023/12/28 02:27:05;;;;;;;10.05;4.90;;;6.00;99.90;;;;;;2079300;28;20017;-73
2023/12/28 02:28:05;;;;;;;10.38;4.70;;;5.90;99.90;;;;;;2078595;28;20155;-71
2023/12/28 02:29:06;;;;;;;7.03;4.60;;;6.00;99.90;;;;;;2083397;28;20025;-73
2023/12/28 02:30:10;;;;;;;8.32;4.82;;;6.00;99.90;;;;;;2086801;28;20059;-73
2023/12/28 02:31:37;;;;;;;6.53;4.40;;;6.00;99.90;;;;;;2073415;28;20026;-74
2023/12/28 02:33:01;;;;;;;7.70;4.50;;;6.10;99.90;;;;;;2069631;28;20112;-72
2023/12/28 02:34:12;;;;;;;7.63;4.60;;;6.20;99.90;;;;;;2073722;28;20370;-72
2023/12/28 02:35:23;;;;;;;7.93;4.63;;;6.40;99.90;;;;;;2071515;28;20025;-71
2023/12/28 02:36:26;;;;;;;7.50;4.30;;;6.40;99.90;;;;;;2086655;28;20032;-72
2023/12/28 02:37:28;;;;;;;7.03;4.28;;;6.50;99.90;;;;;;2076838;28;20037;-72
2023/12/28 02:38:32;;;;;;;6.72;4.32;;;6.50;99.90;;;;;;2067813;28;20026;-72
2023/12/28 02:39:33;;;;;;;6.35;4.20;;;6.50;99.90;;;;;;2070539;28;20488;-72
2023/12/28 02:40:43;;;;;;;6.90;4.13;;;6.50;99.90;;;;;;2075280;28;20018;-81
2023/12/28 02:41:45;;;;;;;6.88;4.32;;;6.50;99.90;;;;;;2073887;28;20065;-80
2023/12/28 02:42:46;;;;;;;6.60;4.07;;;6.50;99.90;;;;;;2087360;28;20037;-81
2023/12/28 02:43:48;;;;;;;7.40;4.35;;;6.50;99.90;;;;;;2087910;28;20019;-81
2023/12/28 02:44:50;;;;;;;7.13;4.43;;;6.50;99.90;;;;;;2077348;28;20017;-80
2023/12/28 02:45:50;;;;;;;7.32;4.10;;;6.50;99.90;;;;;;2087031;28;20061;-80
2023/12/28 02:46:51;;;;;;;5.80;4.00;;;6.50;99.90;;;;;;2078512;28;20017;-81
2023/12/28 02:47:51;;;;;;;6.95;4.05;;;6.50;99.90;;;;;;2068859;28;20640;-81
2023/12/28 02:48:52;;;;;;;5.55;4.00;;;6.50;99.90;;;;;;2070707;28;20148;-81
2023/12/28 02:49:53;;;;;;;6.00;4.13;;;6.50;99.90;;;;;;2073938;28;20028;-81
2023/12/28 02:50:53;;;;;;;5.53;3.60;;;6.50;99.90;;;;;;2077841;28;20350;-80
2023/12/28 02:51:55;;;;;;;5.47;3.72;;;6.50;99.90;;;;;;2079545;28;20502;-73
2023/12/28 02:52:56;;;;;;;7.03;3.95;;;6.50;99.90;;;;;;2078406;28;20053;-73
2023/12/28 02:53:57;;;;;;;5.70;3.33;;;6.50;99.90;;;;;;2078411;28;20040;-73
2023/12/28 02:54:57;;;;;;;5.00;3.42;;;6.50;99.90;;;;;;2078741;28;20033;-81
2023/12/28 02:55:58;;;;;;;4.55;3.20;;;6.70;99.90;;;;;;2089357;28;20080;-80
2023/12/28 02:56:58;;;;;;;6.25;3.65;;;6.70;99.90;;;;;;2086674;28;20032;-81
2023/12/28 02:57:59;;;;;;;4.32;3.20;;;6.80;99.90;;;;;;2077652;28;20079;-81
2023/12/28 02:59:00;;;;;;;5.97;3.10;;;6.90;99.90;;;;;;2085640;28;20452;-81
2023/12/28 03:00:02;;;;;;;5.82;3.20;;;6.90;99.90;;;;;;2076383;28;20172;-81
2023/12/28 03:01:03;;;;;;;5.35;3.50;;;6.90;99.90;;;;;;2076075;28;20449;-81
2023/12/28 03:02:03;;;;;;;4.90;3.22;;;6.90;99.90;;;;;;2083675;28;20044;-81
2023/12/28 03:03:04;;;;;;;3.95;3.05;;;6.90;99.90;;;;;;2078816;28;20182;-80
2023/12/28 03:04:04;;;;;;;4.20;3.13;;;6.90;99.90;;;;;;2077142;28;20014;-80
2023/12/28 03:05:06;;;;;;;5.72;3.50;;;6.90;99.90;;;;;;2076449;28;20033;-81
2023/12/28 03:06:06;;;;;;;4.50;3.40;;;6.90;99.90;;;;;;2076854;28;20112;-80
2023/12/28 03:07:08;;;;;;;4.22;3.35;;;6.90;99.90;;;;;;2087675;28;20020;-80
2023/12/28 03:08:08;;;;;;;5.05;3.28;;;6.90;99.90;;;;;;2084780;28;20017;-80
2023/12/28 03:09:09;;;;;;;4.47;3.35;;;6.90;99.90;;;;;;2081033;28;20498;-81
2023/12/28 03:10:13;;;;;;;6.43;3.20;;;6.80;99.90;;;;;;2079919;28;20040;-81
2023/12/28 03:11:14;;;;;;;5.78;3.28;;;6.80;99.90;;;;;;2061666;28;20049;-81
2023/12/28 03:12:16;;;;;;;5.35;3.10;;;6.80;99.90;;;;;;2068164;28;20073;-81
2023/12/28 03:13:17;;;;;;;6.57;3.25;;;6.80;99.90;;;;;;2076122;28;20118;-79
2023/12/28 03:14:21;;;;;;;3.95;2.75;;;6.80;99.90;;;;;;2077236;28;20025;-81
2023/12/28 03:15:21;;;;;;;6.38;3.45;;;6.80;99.90;;;;;;2079259;28;20043;-81
2023/12/28 03:16:23;;;;;;;6.78;3.65;;;6.80;99.90;;;;;;2086935;28;20057;-81
2023/12/28 03:17:24;;;;;;;5.07;3.20;;;6.90;99.90;;;;;;2080120;28;20043;-81
2023/12/28 03:18:24;;;;;;;4.78;3.15;;;6.90;99.90;;;;;;2078056;28;20046;-81
2023/12/28 03:19:25;;;;;;;4.57;3.08;;;6.90;99.90;;;;;;2079801;28;20124;-81
2023/12/28 03:20:25;;;;;;;5.30;2.83;;;7.00;99.90;;;;;;2070140;28;20517;-82
2023/12/28 03:21:26;;;;;;;4.63;2.97;;;7.20;99.90;;;;;;2072018;28;20121;-81
2023/12/28 03:22:28;;;;;;;5.03;3.05;;;7.20;99.90;;;;;;2078022;28;20443;-80
2023/12/28 03:23:28;;;;;;;5.93;3.05;;;7.30;99.90;;;;;;2078068;28;20278;-80
2023/12/28 03:24:29;;;;;;;5.38;3.42;;;7.30;99.90;;;;;;2079529;28;20055;-80
2023/12/28 03:25:29;;;;;;;4.90;3.00;;;7.20;99.90;;;;;;2076181;28;20132;-80
2023/12/28 03:26:30;;;;;;;5.97;3.15;;;7.20;99.90;;;;;;2076218;28;20034;-80
2023/12/28 03:27:31;;;;;;;5.00;3.50;;;7.30;99.90;;;;;;2076917;28;20040;-81
2023/12/28 03:28:31;;;;;;;5.00;3.33;;;7.20;99.90;;;;;;2071958;28;20451;-80
2023/12/28 03:29:33;;;;;;;4.63;3.30;;;7.20;99.90;;;;;;2061850;28;20505;-80
2023/12/28 03:30:35;;;;;;;3.97;2.70;;;7.20;99.90;;;;;;2076815;28;20026;-80
2023/12/28 03:31:40;;;;;;;5.10;3.00;;;7.10;99.90;;;;;;2080224;28;20079;-80
2023/12/28 03:32:40;;;;;;;4.40;3.20;;;7.20;99.90;;;;;;2079981;28;20408;-81
2023/12/28 03:33:41;;;;;;;4.32;2.88;;;7.20;99.90;;;;;;2079913;28;20112;-81
2023/12/28 03:34:41;;;;;;;4.82;3.10;;;7.20;99.90;;;;;;2077142;28;20022;-80
2023/12/28 03:35:42;;;;;;;6.15;3.38;;;7.20;99.90;;;;;;2087910;28;20099;-80
2023/12/28 03:36:43;;;;;;;5.22;3.13;;;7.10;99.90;;;;;;2071691;28;20022;-78
2023/12/28 03:37:43;;;;;;;5.93;3.45;;;7.10;99.90;;;;;;2067828;28;20381;-78
2023/12/28 03:38:44;;;;;;;10.80;3.80;;;7.00;99.90;;;;;;2076451;28;20105;-80
2023/12/28 03:39:45;;;;;;;5.40;3.40;;;6.90;99.90;;;;;;2079677;28;20037;-81
2023/12/28 03:40:47;;;;;;;4.38;2.80;;;6.90;99.90;;;;;;2067679;28;20057;-73
2023/12/28 03:41:48;;;;;;;5.22;3.38;;;6.90;99.90;;;;;;2071064;28;20116;-73
2023/12/28 03:42:48;;;;;;;6.95;3.38;;;6.90;99.90;;;;;;2071324;28;20498;-73
2023/12/28 03:43:49;;;;;;;5.35;3.40;;;6.90;99.90;;;;;;2076405;28;20018;-73
2023/12/28 03:44:50;;;;;;;6.80;3.58;;;6.90;99.90;;;;;;2087092;28;20035;-73
2023/12/28 03:45:50;;;;;;;7.25;4.55;;;6.90;99.90;;;;;;2079554;28;20032;-73
2023/12/28 03:46:51;;;;;;;7.28;4.03;;;6.90;99.90;;;;;;2076319;28;20028;-73
2023/12/28 03:47:52;;;;;;;5.15;3.33;;;6.90;99.90;;;;;;2086742;28;20024;-73
2023/12/28 03:48:53;;;;;;;5.43;3.22;;;6.90;99.90;;;;;;2079560;28;20529;-74
2023/12/28 03:49:56;;;;;;;6.15;3.08;;;7.00;99.90;;;;;;2068698;28;20048;-74
2023/12/28 03:50:57;;;;;;;4.40;3.10;;;7.00;99.90;;;;;;2069959;28;20050;-74
2023/12/28 03:51:57;;;;;;;4.10;2.90;;;7.10;99.90;;;;;;2068000;28;20029;-73
2023/12/28 03:52:58;;;;;;;5.60;2.80;;;7.20;99.90;;;;;;2076184;28;20034;-73
2023/12/28 03:53:59;;;;;;;4.50;2.45;;;7.10;99.90;;;;;;2078152;28;20103;-73
2023/12/28 03:54:59;;;;;;;4.25;2.85;;;7.20;99.90;;;;;;2078131;28;20034;-74
2023/12/28 03:56:00;;;;;;;4.05;2.78;;;7.10;99.90;;;;;;2071580;28;20578;-74
2023/12/28 03:57:01;;;;;;;4.75;2.83;;;7.10;99.90;;;;;;2055266;28;20049;-73
2023/12/28 03:58:01;;;;;;;5.70;3.10;;;7.20;99.90;;;;;;2071338;28;20029;-73
2023/12/28 03:59:02;;;;;;;5.25;3.17;;;7.20;99.90;;;;;;2085476;28;20361;-73
2023/12/28 04:00:03;;;;;;;4.82;2.63;;;7.20;99.90;;;;;;2078750;28;20361;-74
2023/12/28 04:01:13;;;;;;;3.88;2.40;;;7.20;99.90;;;;;;2076151;28;20120;-73
2023/12/28 04:02:13;;;;;;;3.90;2.50;;;7.30;99.90;;;;;;2071058;28;20033;-73
2023/12/28 04:03:14;;;;;;;2.88;2.20;;;7.40;99.90;;;;;;2068436;28;20421;-74
2023/12/28 04:04:14;;;;;;;6.50;2.75;;;7.50;99.90;;;;;;2079741;28;20030;-73
2023/12/28 04:05:15;;;;;;;6.15;3.35;;;7.60;99.90;;;;;;2071159;28;20468;-73
2023/12/28 04:06:16;;;;;;;4.75;2.60;;;7.60;99.90;;;;;;2076239;28;20029;-73
2023/12/28 04:07:16;;;;;;;4.68;2.80;;;7.60;99.90;;;;;;2079636;28;20029;-73
2023/12/28 04:08:17;;;;;;;5.20;2.70;;;7.60;99.90;;;;;;2080274;28;20048;-73
2023/12/28 04:09:17;;;;;;;3.03;2.30;;;7.60;99.90;;;;;;2076830;28;20053;-72
2023/12/28 04:10:30;;;;;;;4.22;2.72;;;7.70;99.90;;;;;;2080468;28;20112;-72
2023/12/28 04:11:31;;;;;;;4.30;2.42;;;7.70;99.90;;;;;;2078105;28;20042;-73
2023/12/28 04:12:31;;;;;;;5.55;2.50;;;7.70;99.90;;;;;;2076878;28;20660;-72
2023/12/28 04:13:32;;;;;;;3.40;2.70;;;7.80;99.90;;;;;;2078122;28;20026;-72
2023/12/28 04:14:33;;;;;;;4.05;2.70;;;7.90;99.90;;;;;;2087566;28;20017;-71
2023/12/28 04:15:34;;;;;;;3.83;2.38;;;8.10;99.90;;;;;;2087752;28;20938;-73
2023/12/28 04:16:34;;;;;;;2.92;2.15;;;8.10;99.90;;;;;;2077554;28;20043;-72
2023/12/28 04:17:35;;;;;;;3.17;2.10;;;8.30;99.90;;;;;;2077653;28;20053;-72
2023/12/28 04:18:35;;;;;;;5.15;2.60;;;8.50;99.90;;;;;;2069979;28;20119;-72
2023/12/28 04:19:36;;;;;;;2.42;2.00;;;8.60;99.90;;;;;;2077592;28;20186;-73
2023/12/28 04:20:36;;;;;;;4.13;2.50;;;8.50;99.90;;;;;;2077321;28;20022;-72
2023/12/28 04:21:37;;;;;;;5.32;2.10;;;8.40;99.90;;;;;;2087211;28;20021;-72
2023/12/28 04:22:38;;;;;;;4.88;2.50;;;8.50;99.90;;;;;;2077415;28;20026;-72
2023/12/28 04:23:41;;;;;;;3.03;2.05;;;8.40;99.90;;;;;;2076567;28;20612;-72
2023/12/28 04:24:41;;;;;;;3.47;2.20;;;8.50;99.90;;;;;;2075904;28;20120;-72
2023/12/28 04:25:42;;;;;;;4.25;2.10;;;8.80;99.90;;;;;;2076267;28;20029;-71
2023/12/28 04:26:42;;;;;;;4.60;2.20;;;8.80;99.90;;;;;;2080037;28;20034;-72
2023/12/28 04:27:43;;;;;;;4.60;2.45;;;8.80;99.90;;;;;;2086598;28;20032;-72
2023/12/28 04:28:44;;;;;;;3.70;2.75;;;8.70;99.90;;;;;;2076366;28;20021;-72
2023/12/28 04:29:44;;;;;;;5.57;3.40;;;8.70;99.90;;;;;;2071883;28;20492;-72
2023/12/28 04:30:45;;;;;;;5.63;3.78;;;8.70;99.90;;;;;;2075410;28;20507;-73
2023/12/28 04:31:46;;;;;;;3.35;2.40;;;8.60;99.90;;;;;;2064882;28;20021;-73
2023/12/28 04:32:47;;;;;;;3.67;2.50;;;8.70;99.90;;;;;;2075053;28;20526;-73
2023/12/28 04:33:48;;;;;;;4.07;2.60;;;8.70;99.90;;;;;;2079191;28;20028;-73
2023/12/28 04:34:48;;;;;;;3.28;2.53;;;8.60;99.90;;;;;;2079009;28;20112;-73
2023/12/28 04:35:49;;;;;;;3.40;2.80;;;8.60;99.90;;;;;;2067587;28;20100;-72
2023/12/28 04:36:49;;;;;;;4.30;2.80;;;8.50;99.90;;;;;;2079379;28;20048;-72
2023/12/28 04:37:50;;;;;;;4.05;2.80;;;8.50;99.90;;;;;;2067237;28;20033;-72
2023/12/28 04:38:51;;;;;;;5.28;3.25;;;8.50;99.90;;;;;;2071260;28;20053;-73
2023/12/28 04:39:55;;;;;;;4.85;3.25;;;8.50;99.90;;;;;;2067317;28;20018;-72
2023/12/28 04:40:56;;;;;;;5.10;3.30;;;8.40;99.90;;;;;;2064213;28;20049;-72
2023/12/28 04:41:56;;;;;;;4.97;3.38;;;8.40;99.90;;;;;;2070904;28;20527;-73
2023/12/28 04:42:57;;;;;;;6.53;3.60;;;8.40;99.90;;;;;;2067878;28;20016;-72
2023/12/28 04:43:57;;;;;;;5.18;3.47;;;8.40;99.90;;;;;;2070303;28;20040;-72
2023/12/28 04:44:58;;;;;;;5.75;3.80;;;8.40;99.90;;;;;;2079463;28;20025;-73
2023/12/28 04:46:05;;;;;;;6.15;3.90;;;8.30;99.90;;;;;;2084508;28;20021;-73
2023/12/28 04:47:05;;;;;;;6.78;4.03;;;8.30;99.90;;;;;;2085200;28;20438;-74
2023/12/28 04:48:06;;;;;;;7.07;3.70;;;8.20;99.90;;;;;;2079165;28;20592;-73
2023/12/28 04:49:07;;;;;;;6.25;3.88;;;8.30;99.90;;;;;;2077430;28;20055;-73
2023/12/28 04:50:07;;;;;;;5.97;3.75;;;8.30;99.90;;;;;;2077563;28;20191;-73
2023/12/28 04:51:08;;;;;;;5.50;3.75;;;8.20;99.90;;;;;;2079293;28;20021;-75
2023/12/28 04:52:08;;;;;;;5.97;3.80;;;8.20;99.90;;;;;;2077469;28;20033;-73
2023/12/28 04:53:09;;;;;;;6.50;3.60;;;8.10;99.90;;;;;;2076940;28;20036;-73
2023/12/28 04:54:09;;;;;;;6.13;4.20;;;8.20;99.90;;;;;;2071101;28;20030;-73
2023/12/28 04:55:10;;;;;;;8.02;4.20;;;8.20;99.90;;;;;;2069409;28;20034;-73
2023/12/28 04:56:11;;;;;;;6.35;4.18;;;8.10;99.90;;;;;;2076734;28;20056;-73
2023/12/28 04:57:11;;;;;;;6.35;3.72;;;8.20;99.90;;;;;;2083942;28;20107;-73
2023/12/28 04:58:12;;;;;;;6.80;3.80;;;8.20;99.90;;;;;;2079019;28;20022;-74
2023/12/28 04:59:13;;;;;;;5.75;3.70;;;8.20;99.90;;;;;;2077866;28;20186;-73
2023/12/28 05:00:14;;;;;;;7.97;4.85;;;8.20;99.90;;;;;;2068238;28;20105;-73
2023/12/28 05:01:15;;;;;;;11.20;6.43;;;8.20;99.90;;;;;;2075668;28;20109;-73
2023/12/28 05:02:16;;;;;;;6.32;4.07;;;8.20;99.90;;;;;;2079236;28;20029;-73
2023/12/28 05:03:16;;;;;;;7.90;4.72;;;8.20;99.90;;;;;;2086770;28;20043;-73
2023/12/28 05:04:17;;;;;;;10.55;5.63;;;8.20;99.90;;;;;;2083703;28;20107;-73
2023/12/28 05:05:18;;;;;;;7.22;4.05;;;8.30;99.90;;;;;;2070691;28;20041;-72
2023/12/28 05:06:18;;;;;;;7.82;4.55;;;8.30;99.90;;;;;;2070718;28;20047;-72
2023/12/28 05:07:19;;;;;;;6.47;3.63;;;8.20;99.90;;;;;;2075264;28;20060;-72
2023/12/28 05:08:20;;;;;;;5.45;3.75;;;8.20;99.90;;;;;;2070825;28;20254;-72
2023/12/28 05:09:21;;;;;;;6.18;3.78;;;8.20;99.90;;;;;;2079199;28;20029;-72
2023/12/28 05:10:22;;;;;;;5.88;3.83;;;8.20;99.90;;;;;;2075114;28;20511;-72
2023/12/28 05:11:23;;;;;;;7.80;4.10;;;8.20;99.90;;;;;;2075309;28;20052;-72
2023/12/28 05:12:24;;;;;;;6.25;3.63;;;8.20;99.90;;;;;;2078617;28;20446;-72
2023/12/28 05:13:24;;;;;;;7.10;3.80;;;8.20;99.90;;;;;;2087202;28;20032;-72
2023/12/28 05:14:25;;;;;;;8.35;4.05;;;8.20;99.90;;;;;;2066981;28;20026;-72
2023/12/28 05:15:26;;;;;;;9.23;4.63;;;8.20;99.90;;;;;;2070507;28;20053;-72
2023/12/28 05:16:26;;;;;;;7.90;4.55;;;8.20;99.90;;;;;;2083786;28;20028;-72
2023/12/28 05:17:27;;;;;;;7.68;4.60;;;8.20;99.90;;;;;;2076324;28;20484;-73
2023/12/28 05:18:27;;;;;;;9.73;4.68;;;8.20;99.90;;;;;;2086888;28;20549;-73
2023/12/28 05:19:28;;;;;;;7.30;4.47;;;8.20;99.90;;;;;;2078793;28;20063;-72
2023/12/28 05:20:28;;;;;;;7.20;4.30;;;8.20;99.90;;;;;;2067331;28;20036;-71
2023/12/28 05:21:29;;;;;;;9.02;4.50;;;8.20;99.90;;;;;;2070796;28;20044;-72
2023/12/28 05:22:29;;;;;;;6.47;4.30;;;8.30;99.90;;;;;;2078769;28;20308;-72